createdAt,value
2018-12-20T00:00:48.605Z,20.92
2018-12-20T00:03:16.036Z,21.00
2018-12-20T00:05:43.410Z,23.18
2018-12-20T00:08:11.032Z,23.92
2018-12-20T00:10:38.464Z,23.98
2018-12-20T00:13:05.885Z,22.95
2018-12-20T00:15:33.234Z,24.18
2018-12-20T00:18:00.682Z,23.15
2018-12-20T00:20:28.134Z,22.45
2018-12-20T00:22:55.779Z,25.37
2018-12-20T00:25:23.252Z,22.87
2018-12-20T00:27:50.617Z,24.77
2018-12-20T00:30:18.929Z,23.83
2018-12-20T00:32:46.160Z,23.80
2018-12-20T00:35:13.605Z,24.47
2018-12-20T00:37:41.036Z,21.93
2018-12-20T00:40:08.439Z,22.95
2018-12-20T00:42:35.925Z,22.70
2018-12-20T00:45:03.651Z,23.30
2018-12-20T00:47:31.091Z,24.87
2018-12-20T00:49:58.536Z,23.07
2018-12-20T00:52:25.860Z,22.90
2018-12-20T00:54:53.391Z,23.47
2018-12-20T00:57:20.908Z,24.12
2018-12-20T00:59:48.398Z,23.05
2018-12-20T01:02:15.950Z,23.42
2018-12-20T01:04:43.510Z,23.05
2018-12-20T01:07:10.962Z,21.73
2018-12-20T01:09:38.395Z,21.37
2018-12-20T01:12:05.761Z,23.95
2018-12-20T01:14:33.163Z,25.37
2018-12-20T01:17:00.665Z,22.80
2018-12-20T01:19:34.784Z,23.15
2018-12-20T01:22:02.141Z,22.82
2018-12-20T01:24:29.610Z,22.93
2018-12-20T01:26:57.039Z,21.87
2018-12-20T01:29:24.379Z,22.25
2018-12-20T01:31:51.714Z,21.62
2018-12-20T01:34:19.289Z,21.57
2018-12-20T01:36:46.773Z,21.57
2018-12-20T01:39:14.125Z,23.20
2018-12-20T01:41:41.505Z,21.45
2018-12-20T01:44:08.901Z,20.52
2018-12-20T01:46:36.570Z,18.70
2018-12-20T01:49:04.042Z,20.20
2018-12-20T01:51:31.510Z,20.68
2018-12-20T01:53:59.111Z,19.40
2018-12-20T01:56:26.426Z,18.73
2018-12-20T01:58:53.860Z,17.87
2018-12-20T02:01:21.361Z,18.45
2018-12-20T02:03:48.781Z,19.32
2018-12-20T02:06:16.064Z,18.07
2018-12-20T02:08:43.420Z,18.20
2018-12-20T02:11:10.833Z,18.07
2018-12-20T02:13:38.230Z,16.50
2018-12-20T02:16:05.685Z,16.48
2018-12-20T02:18:32.905Z,17.57
2018-12-20T02:21:00.329Z,18.82
2018-12-20T02:23:27.725Z,18.07
2018-12-20T02:25:55.255Z,17.37
2018-12-20T02:28:22.648Z,17.77
2018-12-20T02:30:49.905Z,17.92
2018-12-20T02:33:17.426Z,18.10
2018-12-20T02:35:44.706Z,18.12
2018-12-20T02:38:12.199Z,16.50
2018-12-20T02:40:39.600Z,16.20
2018-12-20T02:43:06.992Z,16.25
2018-12-20T02:45:34.506Z,17.50
2018-12-20T02:48:02.026Z,15.13
2018-12-20T02:50:29.506Z,15.23
2018-12-20T02:52:56.916Z,14.53
2018-12-20T02:55:24.409Z,16.65
2018-12-20T02:57:52.044Z,16.10
2018-12-20T03:00:19.365Z,15.45
2018-12-20T03:02:46.714Z,15.03
2018-12-20T03:05:14.391Z,15.88
2018-12-20T03:07:41.942Z,15.55
2018-12-20T03:10:09.395Z,15.88
2018-12-20T03:12:36.845Z,14.83
2018-12-20T03:15:04.357Z,15.70
2018-12-20T03:17:31.806Z,14.98
2018-12-20T03:19:59.447Z,16.50
2018-12-20T03:22:27.230Z,17.30
2018-12-20T03:24:54.994Z,14.07
2018-12-20T03:27:22.459Z,15.63
2018-12-20T03:29:50.014Z,15.05
2018-12-20T03:32:17.429Z,15.50
2018-12-20T03:34:44.788Z,16.62
2018-12-20T03:37:12.318Z,14.40
2018-12-20T03:39:39.748Z,15.30
2018-12-20T03:42:07.189Z,14.55
2018-12-20T03:44:34.622Z,14.15
2018-12-20T03:47:01.989Z,16.35
2018-12-20T03:49:29.478Z,14.40
2018-12-20T03:51:57.079Z,15.23
2018-12-20T03:54:24.490Z,15.23
2018-12-20T03:56:51.899Z,13.88
2018-12-20T03:59:19.329Z,15.38
2018-12-20T04:01:46.814Z,14.60
2018-12-20T04:04:14.288Z,14.25
2018-12-20T04:06:41.634Z,14.30
2018-12-20T04:09:08.990Z,15.78
2018-12-20T04:11:36.451Z,14.30
2018-12-20T04:14:04.077Z,15.78
2018-12-20T04:16:31.614Z,15.18
2018-12-20T04:18:59.235Z,15.43
2018-12-20T04:21:26.567Z,15.20
2018-12-20T04:23:54.123Z,16.30
2018-12-20T04:26:21.801Z,15.10
2018-12-20T04:28:49.252Z,15.38
2018-12-20T04:31:16.575Z,15.08
2018-12-20T04:33:43.919Z,15.03
2018-12-20T04:36:11.326Z,16.73
2018-12-20T04:38:38.815Z,16.62
2018-12-20T04:41:06.204Z,16.52
2018-12-20T04:43:33.628Z,15.72
2018-12-20T04:46:01.031Z,18.62
2018-12-20T04:48:28.568Z,15.63
2018-12-20T04:50:56.218Z,13.62
2018-12-20T04:53:23.897Z,14.13
2018-12-20T04:55:51.593Z,14.20
2018-12-20T04:58:19.336Z,14.28
2018-12-20T05:00:46.820Z,15.40
2018-12-20T05:03:14.272Z,11.65
2018-12-20T05:05:41.662Z,19.80
2018-12-20T05:08:12.039Z,18.10
2018-12-20T05:10:39.570Z,16.40
2018-12-20T05:13:06.999Z,11.78
2018-12-20T05:15:34.384Z,11.65
2018-12-20T05:18:01.794Z,10.25
2018-12-20T05:20:29.432Z,9.88
2018-12-20T05:22:56.787Z,10.63
2018-12-20T05:25:24.234Z,13.30
2018-12-20T05:27:51.582Z,12.40
2018-12-20T05:30:18.948Z,11.95
2018-12-20T05:32:46.311Z,10.70
2018-12-20T05:35:13.898Z,10.45
2018-12-20T05:37:41.291Z,10.53
2018-12-20T05:40:08.941Z,11.18
2018-12-20T05:42:36.535Z,12.35
2018-12-20T05:45:04.071Z,17.35
2018-12-20T05:47:31.519Z,13.35
2018-12-20T05:49:58.900Z,11.25
2018-12-20T05:52:26.372Z,12.10
2018-12-20T05:54:53.853Z,12.00
2018-12-20T05:57:21.320Z,11.30
2018-12-20T05:59:48.680Z,9.83
2018-12-20T06:02:16.191Z,10.00
2018-12-20T06:04:43.671Z,9.70
2018-12-20T06:07:11.233Z,8.30
2018-12-20T06:09:38.695Z,6.60
2018-12-20T06:12:06.145Z,5.20
2018-12-20T06:14:33.651Z,7.25
2018-12-20T06:17:01.028Z,7.15
2018-12-20T06:19:28.670Z,5.95
2018-12-20T06:21:56.083Z,5.67
2018-12-20T06:24:23.535Z,5.30
2018-12-20T06:26:50.891Z,6.10
2018-12-20T06:29:18.275Z,5.08
2018-12-20T06:31:45.641Z,5.42
2018-12-20T06:34:12.856Z,5.85
2018-12-20T06:36:40.216Z,6.75
2018-12-20T06:39:08.171Z,6.10
2018-12-20T06:41:35.520Z,5.83
2018-12-20T06:44:07.074Z,5.90
2018-12-20T06:46:32.336Z,5.50
2018-12-20T06:48:59.716Z,5.87
2018-12-20T06:51:27.047Z,6.20
2018-12-20T06:53:54.414Z,7.65
2018-12-20T06:56:21.748Z,7.05
2018-12-20T06:58:49.101Z,7.50
2018-12-20T07:01:16.345Z,6.53
2018-12-20T07:03:43.717Z,7.33
2018-12-20T07:06:10.982Z,7.40
2018-12-20T07:08:38.355Z,8.90
2018-12-20T07:11:05.709Z,9.25
2018-12-20T07:13:33.072Z,8.80
2018-12-20T07:16:00.440Z,9.03
2018-12-20T07:18:27.760Z,8.48
2018-12-20T07:21:01.720Z,10.60
2018-12-20T07:23:29.088Z,27.60
2018-12-20T07:25:56.474Z,11.83
2018-12-20T07:28:23.758Z,10.48
2018-12-20T07:30:51.136Z,8.90
2018-12-20T07:33:18.508Z,9.28
2018-12-20T07:35:45.893Z,8.08
2018-12-20T07:38:13.193Z,7.80
2018-12-20T07:40:41.012Z,7.17
2018-12-20T07:43:08.416Z,7.65
2018-12-20T07:45:35.706Z,7.80
2018-12-20T07:48:03.105Z,7.22
2018-12-20T07:50:30.469Z,7.10
2018-12-20T07:52:57.869Z,7.10
2018-12-20T07:55:25.230Z,7.40
2018-12-20T07:57:52.600Z,6.42
2018-12-20T08:00:20.034Z,7.10
2018-12-20T08:02:47.309Z,5.87
2018-12-20T08:05:14.723Z,6.95
2018-12-20T08:07:42.095Z,6.72
2018-12-20T08:10:10.107Z,6.58
2018-12-20T08:12:37.475Z,6.75
2018-12-20T08:15:05.139Z,5.33
2018-12-20T08:17:32.535Z,5.17
2018-12-20T08:19:59.907Z,6.40
2018-12-20T08:22:34.053Z,5.85
2018-12-20T08:25:01.453Z,5.00
2018-12-20T08:27:28.866Z,5.47
2018-12-20T08:29:56.238Z,4.67
2018-12-20T08:32:23.528Z,6.15
2018-12-20T08:34:50.961Z,4.45
2018-12-20T08:37:18.313Z,5.20
2018-12-20T08:39:45.683Z,4.20
2018-12-20T08:42:13.077Z,4.83
2018-12-20T08:44:40.470Z,4.95
2018-12-20T08:47:07.845Z,4.58
2018-12-20T08:49:35.135Z,4.40
2018-12-20T08:52:02.496Z,4.08
2018-12-20T08:54:29.923Z,3.62
2018-12-20T08:56:57.329Z,4.00
2018-12-20T08:59:24.661Z,4.15
2018-12-20T09:01:52.094Z,4.90
2018-12-20T09:04:19.421Z,4.65
2018-12-20T09:06:46.857Z,4.85
2018-12-20T09:09:14.704Z,4.03
2018-12-20T09:11:42.141Z,3.33
2018-12-20T09:14:16.372Z,3.65
2018-12-20T09:16:43.796Z,3.92
2018-12-20T09:19:11.114Z,3.42
2018-12-20T09:21:38.728Z,3.25
2018-12-20T09:24:06.026Z,3.67
2018-12-20T09:26:33.454Z,3.15
2018-12-20T09:29:00.755Z,3.35
2018-12-20T09:31:28.312Z,3.47
2018-12-20T09:33:55.708Z,4.12
2018-12-20T09:36:23.114Z,3.40
2018-12-20T09:38:50.479Z,3.62
2018-12-20T09:41:17.906Z,3.42
2018-12-20T09:43:45.282Z,4.37
2018-12-20T09:46:12.683Z,3.70
2018-12-20T09:48:40.052Z,3.20
2018-12-20T09:51:07.405Z,3.02
2018-12-20T09:53:34.803Z,4.10
2018-12-20T09:56:02.177Z,3.35
2018-12-20T09:58:29.461Z,2.72
2018-12-20T10:00:56.735Z,3.55
2018-12-20T10:03:25.121Z,3.50
2018-12-20T10:05:52.656Z,3.85
2018-12-20T10:08:20.048Z,3.20
2018-12-20T10:10:47.425Z,3.20
2018-12-20T10:13:14.822Z,2.85
2018-12-20T10:15:42.136Z,3.60
2018-12-20T10:18:09.534Z,4.22
2018-12-20T10:20:36.850Z,3.00
2018-12-20T10:23:04.243Z,3.77
2018-12-20T10:25:31.586Z,3.72
2018-12-20T10:27:59.043Z,3.70
2018-12-20T10:30:26.470Z,2.95
2018-12-20T10:32:53.870Z,2.58
2018-12-20T10:35:21.254Z,3.00
2018-12-20T10:37:49.350Z,2.70
2018-12-20T10:40:16.750Z,3.95
2018-12-20T10:42:44.113Z,3.47
2018-12-20T10:45:11.459Z,3.15
2018-12-20T10:47:38.748Z,3.42
2018-12-20T10:50:10.040Z,3.05
2018-12-20T10:52:37.421Z,2.90
2018-12-20T10:55:04.948Z,3.33
2018-12-20T10:57:32.189Z,2.98
2018-12-20T10:59:59.577Z,3.40
2018-12-20T11:02:32.561Z,3.35
2018-12-20T11:05:06.321Z,3.52
2018-12-20T11:07:39.253Z,2.95
2018-12-20T11:10:13.716Z,2.67
2018-12-20T11:12:47.135Z,4.42
2018-12-20T11:15:14.501Z,3.58
2018-12-20T11:17:41.779Z,2.50
2018-12-20T11:20:09.342Z,2.10
2018-12-20T11:22:36.981Z,3.52
2018-12-20T11:25:04.323Z,2.50
2018-12-20T11:27:31.679Z,3.20
2018-12-20T11:29:59.206Z,3.72
2018-12-20T11:32:26.609Z,2.90
2018-12-20T11:34:54.003Z,2.62
2018-12-20T11:37:21.450Z,2.70
2018-12-20T11:39:48.697Z,2.17
2018-12-20T11:42:16.105Z,3.25
2018-12-20T11:44:43.447Z,2.55
2018-12-20T11:47:16.374Z,2.58
2018-12-20T11:49:43.789Z,2.77
2018-12-20T11:52:11.200Z,2.98
2018-12-20T11:54:38.526Z,2.30
2018-12-20T11:57:05.902Z,2.15
2018-12-20T11:59:33.177Z,2.50
2018-12-20T12:02:00.829Z,2.30
2018-12-20T12:04:28.185Z,2.90
2018-12-20T12:06:55.485Z,2.92
2018-12-20T12:09:22.775Z,2.85
2018-12-20T12:11:50.162Z,2.60
2018-12-20T12:14:17.552Z,2.30
2018-12-20T12:16:44.861Z,2.58
2018-12-20T12:19:12.310Z,2.58
2018-12-20T12:21:40.616Z,2.70
2018-12-20T12:24:08.009Z,2.75
2018-12-20T12:26:35.455Z,2.83
2018-12-20T12:29:02.774Z,3.05
2018-12-20T12:31:30.048Z,3.00
2018-12-20T12:33:57.363Z,2.33
2018-12-20T12:36:24.666Z,2.12
2018-12-20T12:38:51.966Z,3.08
2018-12-20T12:41:19.376Z,2.92
2018-12-20T12:43:50.988Z,4.03
2018-12-20T12:46:16.128Z,2.75
2018-12-20T12:48:43.438Z,2.90
2018-12-20T12:51:10.722Z,3.45
2018-12-20T12:53:38.010Z,3.33
2018-12-20T12:56:05.523Z,3.12
2018-12-20T12:58:32.915Z,3.02
2018-12-20T13:01:00.228Z,3.47
2018-12-20T13:03:27.633Z,3.75
2018-12-20T13:05:55.016Z,2.65
2018-12-20T13:08:22.313Z,4.33
2018-12-20T13:10:49.604Z,2.22
2018-12-20T13:13:17.055Z,2.52
2018-12-20T13:15:44.353Z,2.62
2018-12-20T13:18:13.684Z,2.80
2018-12-20T13:20:41.119Z,3.17
2018-12-20T13:23:08.473Z,2.33
2018-12-20T13:25:35.777Z,2.42
2018-12-20T13:28:03.185Z,3.02
2018-12-20T13:30:30.536Z,2.40
2018-12-20T13:32:57.851Z,2.77
2018-12-20T13:35:25.239Z,2.20
2018-12-20T13:37:52.587Z,2.22
2018-12-20T13:40:19.955Z,2.10
2018-12-20T13:42:47.748Z,2.10
2018-12-20T13:45:15.153Z,2.20
2018-12-20T13:47:42.550Z,2.30
2018-12-20T13:50:09.966Z,3.05
2018-12-20T13:52:37.380Z,2.17
2018-12-20T13:55:04.929Z,2.02
2018-12-20T13:57:32.330Z,1.90
2018-12-20T13:59:59.731Z,1.80
2018-12-20T14:02:27.088Z,1.85
2018-12-20T14:04:54.449Z,3.00
2018-12-20T14:07:21.849Z,2.55
2018-12-20T14:09:49.316Z,3.35
2018-12-20T14:12:16.707Z,2.00
2018-12-20T14:14:44.088Z,1.80
2018-12-20T14:17:11.438Z,1.92
2018-12-20T14:19:38.728Z,2.08
2018-12-20T14:22:06.111Z,1.77
2018-12-20T14:24:33.398Z,2.15
2018-12-20T14:27:00.702Z,2.17
2018-12-20T14:29:28.100Z,2.27
2018-12-20T14:31:55.435Z,3.00
2018-12-20T14:34:22.783Z,3.00
2018-12-20T14:36:50.208Z,3.95
2018-12-20T14:39:17.617Z,3.70
2018-12-20T14:41:45.032Z,3.58
2018-12-20T14:44:12.429Z,5.28
2018-12-20T14:46:39.772Z,11.40
2018-12-20T14:49:07.155Z,4.90
2018-12-20T14:51:34.409Z,3.98
2018-12-20T14:54:01.889Z,4.08
2018-12-20T14:56:29.176Z,3.62
2018-12-20T14:58:56.569Z,3.22
2018-12-20T15:01:24.012Z,2.90
2018-12-20T15:03:51.605Z,2.15
2018-12-20T15:06:19.111Z,2.30
2018-12-20T15:08:46.580Z,4.72
2018-12-20T15:11:13.916Z,21.52
2018-12-20T15:13:41.337Z,12.50
2018-12-20T15:16:08.750Z,20.85
2018-12-20T15:18:36.234Z,9.58
2018-12-20T15:21:03.624Z,9.80
2018-12-20T15:23:30.950Z,5.03
2018-12-20T15:25:58.431Z,2.52
2018-12-20T15:28:25.765Z,2.45
2018-12-20T15:30:53.151Z,3.30
2018-12-20T15:33:20.567Z,3.80
2018-12-20T15:35:47.912Z,3.12
2018-12-20T15:38:15.802Z,5.28
2018-12-20T15:40:43.375Z,4.80
2018-12-20T15:43:11.014Z,3.10
2018-12-20T15:45:38.439Z,5.40
2018-12-20T15:48:05.798Z,5.85
2018-12-20T15:50:33.208Z,6.28
2018-12-20T15:53:00.618Z,6.62
2018-12-20T15:55:28.019Z,5.42
2018-12-20T15:57:55.336Z,6.55
2018-12-20T16:00:22.693Z,4.50
2018-12-20T16:02:50.009Z,4.90
2018-12-20T16:05:17.437Z,4.87
2018-12-20T16:07:45.654Z,4.70
2018-12-20T16:10:12.958Z,4.58
2018-12-20T16:12:40.445Z,4.75
2018-12-20T16:15:07.942Z,4.78
2018-12-20T16:17:35.368Z,3.80
2018-12-20T16:20:02.914Z,4.70
2018-12-20T16:22:30.202Z,4.55
2018-12-20T16:24:57.639Z,4.00
2018-12-20T16:27:26.912Z,5.28
2018-12-20T16:29:54.463Z,4.87
2018-12-20T16:32:21.896Z,5.35
2018-12-20T16:34:49.349Z,8.18
2018-12-20T16:37:16.769Z,9.18
2018-12-20T16:39:44.321Z,12.07
2018-12-20T16:42:11.674Z,8.08
2018-12-20T16:44:39.051Z,10.05
2018-12-20T16:47:06.618Z,7.53
2018-12-20T16:49:34.178Z,6.60
2018-12-20T16:52:01.542Z,5.87
2018-12-20T16:54:28.929Z,8.68
2018-12-20T16:56:56.395Z,6.30
2018-12-20T16:59:23.777Z,8.28
2018-12-20T17:01:51.122Z,8.30
2018-12-20T17:04:18.571Z,8.70
2018-12-20T17:06:46.058Z,10.08
2018-12-20T17:09:13.422Z,11.03
2018-12-20T17:11:40.776Z,10.50
2018-12-20T17:14:08.291Z,13.20
2018-12-20T17:16:35.824Z,14.18
2018-12-20T17:19:03.302Z,15.40
2018-12-20T17:21:30.743Z,15.38
2018-12-20T17:23:58.110Z,17.35
2018-12-20T17:26:25.587Z,26.37
2018-12-20T17:28:53.069Z,27.25
2018-12-20T17:31:20.478Z,28.42
2018-12-20T17:33:47.973Z,27.60
2018-12-20T17:36:15.951Z,25.52
2018-12-20T17:38:43.489Z,26.17
2018-12-20T17:41:10.824Z,25.25
2018-12-20T17:43:38.406Z,21.90
2018-12-20T17:46:06.226Z,21.75
2018-12-20T17:48:33.596Z,23.95
2018-12-20T17:51:01.712Z,22.80
2018-12-20T17:53:32.093Z,22.90
2018-12-20T17:55:59.584Z,21.60
2018-12-20T17:58:27.068Z,19.48
2018-12-20T18:00:54.539Z,19.23
2018-12-20T18:03:22.063Z,19.92
2018-12-20T18:05:49.590Z,19.65
2018-12-20T18:08:17.128Z,17.98
2018-12-20T18:10:44.739Z,22.10
2018-12-20T18:13:12.188Z,21.40
2018-12-20T18:15:39.644Z,19.35
2018-12-20T18:18:07.075Z,18.10
2018-12-20T18:20:34.547Z,16.07
2018-12-20T18:23:02.035Z,14.58
2018-12-20T18:25:29.652Z,12.07
2018-12-20T18:27:57.121Z,11.88
2018-12-20T18:30:24.703Z,15.63
2018-12-20T18:32:52.090Z,15.85
2018-12-20T18:35:20.044Z,12.68
2018-12-20T18:37:48.330Z,9.40
2018-12-20T18:40:15.866Z,10.28
2018-12-20T18:42:43.388Z,12.00
2018-12-20T18:45:11.517Z,17.32
2018-12-20T18:47:38.943Z,19.40
2018-12-20T18:50:08.239Z,14.83
2018-12-20T18:52:35.635Z,18.17
2018-12-20T18:55:03.334Z,17.55
2018-12-20T18:57:30.736Z,19.77
2018-12-20T19:00:01.237Z,19.42
2018-12-20T19:02:28.664Z,20.82
2018-12-20T19:04:56.546Z,19.65
2018-12-20T19:07:24.019Z,21.15
2018-12-20T19:09:51.546Z,19.65
2018-12-20T19:12:19.769Z,19.90
2018-12-20T19:14:47.253Z,17.77
2018-12-20T19:17:14.777Z,18.20
2018-12-20T19:19:42.300Z,17.42
2018-12-20T19:22:10.088Z,17.15
2018-12-20T19:24:37.577Z,17.37
2018-12-20T19:27:05.200Z,17.20
2018-12-20T19:29:37.075Z,19.70
2018-12-20T19:32:05.224Z,23.18
2018-12-20T19:34:32.848Z,22.30
2018-12-20T19:37:01.255Z,20.25
2018-12-20T19:39:29.453Z,21.15
2018-12-20T19:42:01.658Z,20.70
2018-12-20T19:44:29.343Z,20.50
2018-12-20T19:46:57.739Z,13.43
2018-12-20T19:49:25.608Z,9.40
2018-12-20T19:51:53.215Z,8.15
2018-12-20T19:54:21.069Z,5.10
2018-12-20T19:56:48.661Z,5.25
2018-12-20T19:59:16.257Z,4.90
2018-12-20T20:01:44.043Z,4.35
2018-12-20T20:04:12.387Z,4.40
2018-12-20T20:06:41.033Z,4.20
2018-12-20T20:09:08.597Z,3.85
2018-12-20T20:11:36.525Z,4.83
2018-12-20T20:14:04.716Z,7.37
2018-12-20T20:16:33.229Z,7.80
2018-12-20T20:19:00.871Z,8.33
2018-12-20T20:21:30.049Z,10.30
2018-12-20T20:23:58.327Z,8.20
2018-12-20T20:26:26.091Z,5.95
2018-12-20T20:28:54.090Z,6.20
2018-12-20T20:31:21.613Z,4.90
2018-12-20T20:33:49.136Z,5.50
2018-12-20T20:36:16.938Z,5.95
2018-12-20T20:38:45.340Z,5.92
2018-12-20T20:41:12.966Z,6.65
2018-12-20T20:43:40.679Z,9.90
2018-12-20T20:46:09.323Z,12.35
2018-12-20T20:48:37.086Z,11.88
2018-12-20T20:51:05.764Z,13.70
2018-12-20T20:53:34.560Z,12.25
2018-12-20T20:56:02.243Z,11.33
2018-12-20T20:58:29.776Z,11.57
2018-12-20T21:00:57.227Z,13.90
2018-12-20T21:03:24.798Z,15.38
2018-12-20T21:05:52.253Z,12.58
2018-12-20T21:08:19.754Z,15.48
2018-12-20T21:10:47.261Z,15.78
2018-12-20T21:13:14.810Z,13.15
2018-12-20T21:15:42.193Z,14.50
2018-12-20T21:18:09.665Z,15.15
2018-12-20T21:20:37.138Z,15.58
2018-12-20T21:23:04.585Z,14.95
2018-12-20T21:25:32.068Z,16.30
2018-12-20T21:27:59.545Z,15.78
2018-12-20T21:30:27.719Z,14.83
2018-12-20T21:32:55.194Z,15.03
2018-12-20T21:35:22.671Z,17.50
2018-12-20T21:37:50.026Z,17.82
2018-12-20T21:40:18.712Z,14.25
2018-12-20T21:42:47.286Z,15.90
2018-12-20T21:45:14.692Z,16.65
2018-12-20T21:47:42.145Z,22.22
2018-12-20T21:50:10.791Z,19.85
2018-12-20T21:52:38.322Z,16.00
2018-12-20T21:55:06.488Z,12.37
2018-12-20T21:57:33.830Z,11.80
2018-12-20T22:00:01.787Z,10.80
2018-12-20T22:02:29.298Z,12.63
2018-12-20T22:04:56.904Z,9.50
2018-12-20T22:07:24.299Z,10.10
2018-12-20T22:09:51.734Z,10.23
2018-12-20T22:12:19.113Z,8.95
2018-12-20T22:14:46.538Z,8.88
2018-12-20T22:17:13.850Z,11.25
2018-12-20T22:19:41.199Z,26.65
2018-12-20T22:22:08.595Z,19.75
2018-12-20T22:24:35.957Z,20.25
2018-12-20T22:27:03.442Z,16.85
2018-12-20T22:29:30.833Z,17.17
2018-12-20T22:31:58.143Z,14.45
2018-12-20T22:34:25.476Z,12.73
2018-12-20T22:36:52.835Z,12.23
2018-12-20T22:39:20.163Z,13.68
2018-12-20T22:41:47.520Z,13.45
2018-12-20T22:44:14.891Z,10.53
2018-12-20T22:46:42.213Z,10.93
2018-12-20T22:49:09.577Z,9.33
2018-12-20T22:54:10.897Z,7.70
2018-12-20T22:56:38.229Z,8.70
2018-12-20T22:59:05.559Z,8.03
2018-12-20T23:01:32.925Z,8.70
2018-12-20T23:04:00.287Z,8.18
2018-12-20T23:06:27.625Z,8.45
2018-12-20T23:08:54.973Z,14.00
2018-12-20T23:11:22.333Z,10.72
2018-12-20T23:13:49.692Z,9.80
2018-12-20T23:16:17.044Z,6.95
2018-12-20T23:18:44.348Z,4.40
2018-12-20T23:21:11.673Z,4.12
2018-12-20T23:23:38.994Z,3.55
2018-12-20T23:26:06.424Z,3.85
2018-12-20T23:28:33.769Z,4.95
2018-12-20T23:31:01.108Z,3.33
2018-12-20T23:33:28.438Z,3.65
2018-12-20T23:35:55.866Z,4.08
2018-12-20T23:38:23.232Z,5.80
2018-12-20T23:40:50.572Z,4.95
2018-12-20T23:43:17.900Z,6.15
2018-12-20T23:45:45.474Z,5.30
2018-12-20T23:48:12.795Z,4.53
2018-12-20T23:50:40.148Z,5.47
2018-12-20T23:53:07.390Z,4.22
2018-12-20T23:55:34.748Z,4.40
2018-12-20T23:58:02.075Z,4.37
